TimeCDT,TemperatureF,Dew PointF,Humidity,Sea Level PressureIn,VisibilityMPH,Wind Direction,Wind SpeedMPH,Gust SpeedMPH,PrecipitationIn,Events,Conditions,WindDirDegrees,DateUTC
12:35 AM,68.0,66.2,94,30.04,4.0,West,3.5,-,N/A,,Mostly Cloudy,270,2013-05-12 05:35:00
12:46 AM,68.0,66.2,94,30.04,4.0,Calm,Calm,-,N/A,,Mostly Cloudy,0,2013-05-12 05:46:00
12:53 AM,68.0,66.0,93,30.04,5.0,West,3.5,-,N/A,,Scattered Clouds,260,2013-05-12 05:53:00
1:53 AM,66.9,64.9,93,30.03,6.0,Calm,Calm,-,N/A,,Partly Cloudy,0,2013-05-12 06:53:00
2:19 AM,64.4,62.6,94,30.02,1.8,NW,3.5,-,N/A,,Clear,310,2013-05-12 07:19:00
2:29 AM,64.4,62.6,94,30.02,0.8,NW,3.5,-,N/A,,Clear,320,2013-05-12 07:29:00
2:33 AM,64.4,62.6,94,30.02,2.0,NNW,3.5,-,N/A,,Clear,330,2013-05-12 07:33:00
2:41 AM,64.4,62.6,94,30.02,7.0,NNW,3.5,-,N/A,,Clear,330,2013-05-12 07:41:00
2:53 AM,66.0,63.0,90,30.02,9.0,NNW,4.6,-,N/A,,Mostly Cloudy,330,2013-05-12 07:53:00
3:53 AM,66.0,62.1,87,30.03,10.0,NNW,5.8,-,N/A,,Mostly Cloudy,340,2013-05-12 08:53:00
4:53 AM,64.0,60.1,87,30.04,10.0,NNW,5.8,-,N/A,,Clear,340,2013-05-12 09:53:00
5:53 AM,62.1,59.0,90,30.05,10.0,North,3.5,-,N/A,,Clear,350,2013-05-12 10:53:00
6:53 AM,62.1,57.9,86,30.07,10.0,NNW,6.9,-,N/A,,Clear,340,2013-05-12 11:53:00
7:53 AM,66.9,57.9,73,30.09,10.0,NNE,5.8,-,N/A,,Clear,20,2013-05-12 12:53:00
8:53 AM,71.1,57.9,63,30.10,10.0,NNE,8.1,-,N/A,,Clear,20,2013-05-12 13:53:00
9:53 AM,73.0,57.0,57,30.10,10.0,North,9.2,-,N/A,,Clear,360,2013-05-12 14:53:00
10:53 AM,73.9,53.1,48,30.10,10.0,NNE,11.5,-,N/A,,Clear,30,2013-05-12 15:53:00
11:53 AM,77.0,54.0,45,30.11,10.0,NNE,12.7,-,N/A,,Clear,20,2013-05-12 16:53:00
12:53 PM,78.1,55.9,46,30.09,10.0,North,12.7,-,N/A,,Clear,360,2013-05-12 17:53:00
1:53 PM,77.0,55.0,47,30.12,10.0,NNW,8.1,-,N/A,,Clear,340,2013-05-12 18:53:00
2:53 PM,79.0,55.9,45,30.08,10.0,North,9.2,-,N/A,,Clear,350,2013-05-12 19:53:00
3:53 PM,80.1,57.0,45,30.07,10.0,NNE,10.4,-,N/A,,Clear,20,2013-05-12 20:53:00
4:53 PM,81.0,55.9,42,30.07,10.0,North,6.9,-,N/A,,Clear,10,2013-05-12 21:53:00
5:53 PM,79.0,55.0,44,30.06,10.0,North,6.9,-,N/A,,Mostly Cloudy,360,2013-05-12 22:53:00
6:53 PM,79.0,55.0,44,30.07,10.0,North,5.8,-,N/A,,Clear,350,2013-05-12 23:53:00
7:53 PM,75.0,55.9,51,30.08,10.0,North,6.9,-,N/A,,Clear,360,2013-05-13 00:53:00
8:53 PM,72.0,57.0,59,30.09,10.0,North,5.8,-,N/A,,Clear,360,2013-05-13 01:53:00
9:53 PM,70.0,55.9,61,30.11,10.0,North,5.8,-,N/A,,Clear,360,2013-05-13 02:53:00
10:53 PM,68.0,55.0,63,30.12,10.0,North,5.8,-,N/A,,Clear,350,2013-05-13 03:53:00
11:53 PM,66.0,54.0,65,30.13,10.0,North,6.9,-,N/A,,Clear,350,2013-05-13 04:53:00